Addison, Illinois
Current Conditions -  °F | °C
As of 12:51 PM on Tuesday 21 Oct 2014 (Local Time) from KORD Reporting Station
Overcast Overcast  
Wind Chill: 52°   Ceiling: 4500
Heat Index: 52°   Visibility: 10mi
Dew Point: 40°   Wind: 18mph
Humidity: 63%   Direction: 30°NNE
Pressure: 30.17"   Gusts: NA
Location:  41.93°N, 87.99°W
Report Text: KORD 211751Z 03016KT 10SM SCT030 OVC045 11/04 A3017 RMK AO2 SLP218 T01110044 10117 20072 51006
Loading
Personal Weather Stations






























Interactive Weather Map
Tropical Storm Tracking
New forecast layout! Learn more

10-Day Weather Forecast

Advertisements
Track Severe Weather on mobile